createdAt,value
2023-05-10T00:01:14.569Z,42.67
2023-05-10T00:06:17.403Z,43.21
2023-05-10T00:11:22.193Z,43.44
2023-05-10T00:16:25.637Z,43.88
2023-05-10T00:21:29.442Z,44.02
2023-05-10T00:26:32.025Z,44.15
2023-05-10T00:31:34.719Z,44.60
2023-05-10T00:36:37.707Z,44.69
2023-05-10T00:41:40.359Z,44.85
2023-05-10T00:46:43.013Z,45.21
2023-05-10T00:51:46.000Z,45.46
2023-05-10T00:56:50.329Z,45.69
2023-05-10T01:01:53.172Z,45.72
2023-05-10T01:06:55.715Z,45.90
2023-05-10T01:11:58.504Z,46.06
2023-05-10T01:17:03.134Z,46.15
2023-05-10T01:22:49.054Z,46.27
2023-05-10T01:28:15.635Z,46.31
2023-05-10T01:33:30.390Z,46.33
2023-05-10T01:38:51.669Z,46.37
2023-05-10T01:44:29.914Z,46.47
2023-05-10T01:49:41.329Z,46.63
2023-05-10T01:54:54.305Z,46.76
2023-05-10T01:59:58.381Z,46.83
2023-05-10T02:05:01.495Z,47.06
2023-05-10T02:10:08.552Z,47.20
2023-05-10T02:15:15.746Z,47.54
2023-05-10T02:20:20.270Z,47.49
2023-05-10T02:25:25.968Z,47.62
2023-05-10T02:30:30.419Z,47.90
2023-05-10T02:35:34.492Z,48.03
2023-05-10T02:40:39.093Z,48.15
2023-05-10T02:45:44.068Z,48.28
2023-05-10T02:50:52.203Z,48.58
2023-05-10T02:56:01.627Z,48.72
2023-05-10T03:01:04.440Z,48.99
2023-05-10T03:06:07.031Z,49.26
2023-05-10T03:11:43.931Z,49.88
2023-05-10T03:16:58.355Z,49.67
2023-05-10T03:22:09.674Z,49.35
2023-05-10T03:27:15.324Z,48.63
2023-05-10T03:32:18.252Z,47.92
2023-05-10T03:37:20.816Z,47.46
2023-05-10T03:42:23.441Z,46.65
2023-05-10T03:47:26.124Z,45.74
2023-05-10T03:52:28.889Z,44.75
2023-05-10T03:57:31.438Z,44.02
2023-05-10T04:02:34.253Z,43.07
2023-05-10T04:07:37.089Z,41.99
2023-05-10T04:12:39.672Z,41.08
2023-05-10T04:17:42.248Z,40.35
2023-05-10T04:22:44.820Z,39.53
2023-05-10T04:27:47.410Z,38.25
2023-05-10T04:32:50.517Z,36.83
2023-05-10T04:37:53.096Z,36.72
2023-05-10T04:42:55.635Z,36.01
2023-05-10T04:47:58.254Z,34.80
2023-05-10T04:53:00.994Z,34.19
2023-05-10T04:58:03.948Z,33.38
2023-05-10T05:03:07.181Z,32.90
2023-05-10T05:08:09.960Z,32.40
2023-05-10T05:13:13.761Z,31.36
2023-05-10T05:18:16.489Z,30.50
2023-05-10T05:23:19.851Z,29.95
2023-05-10T05:28:23.125Z,29.32
2023-05-10T05:33:25.830Z,28.81
2023-05-10T05:38:28.584Z,28.23
2023-05-10T05:43:31.434Z,27.68
2023-05-10T05:48:34.263Z,27.33
2023-05-10T05:53:37.087Z,26.40
2023-05-10T05:58:40.025Z,26.34
2023-05-10T06:03:42.757Z,25.64
2023-05-10T06:08:45.652Z,25.60
2023-05-10T06:13:48.749Z,25.17
2023-05-10T06:18:52.311Z,24.80
2023-05-10T06:23:54.823Z,24.60
2023-05-10T06:28:57.413Z,24.33
2023-05-10T06:33:59.940Z,23.90
2023-05-10T06:39:02.634Z,23.83
2023-05-10T06:44:05.289Z,23.57
2023-05-10T06:49:07.962Z,23.45
2023-05-10T06:54:13.086Z,22.95
2023-05-10T06:59:17.486Z,22.35
2023-05-10T07:04:20.222Z,22.41
2023-05-10T07:09:22.843Z,21.98
2023-05-10T07:14:25.493Z,21.74
2023-05-10T07:19:28.114Z,21.64
2023-05-10T07:24:32.158Z,21.43
2023-05-10T07:29:34.825Z,21.10
2023-05-10T07:34:37.442Z,20.76
2023-05-10T07:39:40.023Z,20.71
2023-05-10T07:44:42.841Z,20.52
2023-05-10T07:49:45.531Z,20.50
2023-05-10T07:54:48.109Z,20.22
2023-05-10T07:59:50.780Z,20.12
2023-05-10T08:04:53.833Z,19.50
2023-05-10T08:09:56.713Z,19.77
2023-05-10T08:14:59.343Z,19.94
2023-05-10T08:20:02.426Z,19.77
2023-05-10T08:25:06.109Z,19.76
2023-05-10T08:30:10.112Z,19.58
2023-05-10T08:35:12.732Z,19.45
2023-05-10T08:40:16.619Z,19.48
2023-05-10T08:45:21.479Z,19.50
2023-05-10T08:50:26.303Z,19.53
2023-05-10T08:55:29.164Z,19.56
2023-05-10T09:00:32.317Z,19.45
2023-05-10T09:05:37.177Z,19.47
2023-05-10T09:10:41.341Z,19.43
2023-05-10T09:15:46.226Z,19.41
2023-05-10T09:20:49.969Z,19.32
2023-05-10T09:26:08.593Z,19.29
2023-05-10T09:31:11.214Z,19.52
2023-05-10T09:36:15.196Z,19.47
2023-05-10T09:41:29.568Z,19.27
2023-05-10T09:46:43.947Z,19.41
2023-05-10T09:51:47.625Z,19.38
2023-05-10T09:56:53.768Z,19.50
2023-05-10T10:02:01.518Z,19.53
2023-05-10T10:07:06.364Z,19.66
2023-05-10T10:12:11.106Z,19.77
2023-05-10T10:17:16.628Z,19.82
2023-05-10T10:22:19.272Z,20.01
2023-05-10T10:27:40.388Z,20.20
2023-05-10T10:33:29.243Z,20.48
2023-05-10T10:39:00.203Z,20.95
2023-05-10T10:44:39.078Z,21.42
2023-05-10T10:49:41.849Z,21.66
2023-05-10T10:55:07.179Z,21.85
2023-05-10T11:00:30.392Z,22.15
2023-05-10T11:05:41.462Z,22.14
2023-05-10T11:11:04.789Z,22.17
2023-05-10T11:16:16.146Z,22.34
2023-05-10T11:21:28.012Z,22.35
2023-05-10T11:26:36.521Z,22.43
2023-05-10T11:31:46.233Z,22.61
2023-05-10T11:36:55.450Z,22.66
2023-05-10T11:42:01.291Z,22.68
2023-05-10T11:47:04.200Z,22.75
2023-05-10T11:52:08.614Z,22.75
2023-05-10T11:57:11.182Z,22.84
2023-05-10T12:02:15.436Z,22.91
2023-05-10T12:07:18.524Z,22.84
2023-05-10T12:12:21.132Z,22.92
2023-05-10T12:17:29.951Z,22.85
2023-05-10T12:22:35.888Z,22.60
2023-05-10T12:27:38.647Z,22.50
2023-05-10T12:32:43.077Z,22.39
2023-05-10T12:37:45.973Z,22.42
2023-05-10T12:42:50.178Z,22.53
2023-05-10T12:47:52.921Z,22.50
2023-05-10T12:52:56.020Z,22.38
2023-05-10T12:57:58.781Z,22.34
2023-05-10T13:03:01.621Z,22.38
2023-05-10T13:08:04.329Z,22.25
2023-05-10T13:13:08.630Z,22.23
2023-05-10T13:18:11.425Z,21.99
2023-05-10T13:23:14.118Z,21.99
2023-05-10T13:28:16.832Z,22.06
2023-05-10T13:33:19.440Z,22.19
2023-05-10T13:38:22.544Z,22.27
2023-05-10T13:43:25.451Z,22.28
2023-05-10T13:48:28.250Z,22.35
2023-05-10T13:53:30.890Z,22.13
2023-05-10T13:59:24.105Z,22.26
2023-05-10T14:04:27.050Z,22.32
2023-05-10T14:09:30.000Z,22.15
2023-05-10T14:14:32.996Z,22.16
2023-05-10T14:19:35.584Z,22.10
2023-05-10T14:24:39.152Z,22.17
2023-05-10T14:29:41.760Z,22.08
2023-05-10T14:34:44.432Z,21.92
2023-05-10T14:39:47.059Z,21.98
2023-05-10T14:44:49.710Z,22.06
2023-05-10T14:49:52.617Z,22.02
2023-05-10T14:54:55.632Z,22.08
2023-05-10T14:59:58.611Z,22.24
2023-05-10T15:05:01.994Z,22.31
2023-05-10T15:10:06.510Z,22.30
2023-05-10T15:15:09.554Z,22.48
2023-05-10T15:20:12.703Z,22.71
2023-05-10T15:25:16.931Z,22.92
2023-05-10T15:30:19.872Z,23.05
2023-05-10T15:35:22.661Z,23.05
2023-05-10T15:40:26.164Z,23.19
2023-05-10T15:45:29.005Z,23.33
2023-05-10T15:50:31.983Z,23.43
2023-05-10T15:55:35.344Z,23.50
2023-05-10T16:00:39.191Z,23.73
2023-05-10T16:05:42.012Z,23.88
2023-05-10T16:10:45.229Z,24.00
2023-05-10T16:15:47.866Z,24.22
2023-05-10T16:20:50.624Z,24.30
2023-05-10T16:25:53.754Z,24.37
2023-05-10T16:30:56.506Z,24.42
2023-05-10T16:35:59.165Z,24.56
2023-05-10T16:41:03.604Z,24.81
2023-05-10T16:46:12.952Z,25.01
2023-05-10T16:51:15.712Z,25.13
2023-05-10T16:56:18.460Z,25.22
2023-05-10T17:01:21.508Z,25.33
2023-05-10T17:06:25.333Z,25.37
2023-05-10T17:11:29.827Z,25.51
2023-05-10T17:16:32.681Z,25.65
2023-05-10T17:21:35.665Z,25.75
2023-05-10T17:26:38.282Z,25.85
2023-05-10T17:31:40.952Z,25.98
2023-05-10T17:36:43.666Z,26.10
2023-05-10T17:41:46.370Z,26.18
2023-05-10T17:46:48.979Z,26.36
2023-05-10T17:51:54.919Z,26.52
2023-05-10T17:56:58.278Z,26.67
2023-05-10T18:02:02.675Z,26.78
2023-05-10T18:07:05.256Z,26.95
2023-05-10T18:12:07.988Z,27.18
2023-05-10T18:17:10.874Z,27.38
2023-05-10T18:22:13.763Z,27.50
2023-05-10T18:27:16.534Z,27.65
2023-05-10T18:32:19.149Z,27.88
2023-05-10T18:37:21.765Z,27.99
2023-05-10T18:42:24.507Z,28.19
2023-05-10T18:47:27.747Z,28.36
2023-05-10T18:52:30.379Z,28.53
2023-05-10T18:57:32.946Z,28.74
2023-05-10T19:02:36.676Z,28.92
2023-05-10T19:07:43.389Z,29.14
2023-05-10T19:12:45.988Z,29.40
2023-05-10T19:17:48.758Z,29.69
2023-05-10T19:23:08.575Z,29.95
2023-05-10T19:28:12.672Z,30.14
2023-05-10T19:33:15.363Z,30.31
2023-05-10T19:38:25.774Z,30.51
2023-05-10T19:43:33.305Z,30.75
2023-05-10T19:48:36.946Z,31.02
2023-05-10T19:53:44.179Z,31.23
2023-05-10T19:58:47.010Z,31.42
2023-05-10T20:03:49.595Z,31.64
2023-05-10T20:08:52.277Z,31.70
2023-05-10T20:13:54.967Z,32.21
2023-05-10T20:18:57.760Z,32.55
2023-05-10T20:24:00.522Z,32.67
2023-05-10T20:29:03.685Z,33.10
2023-05-10T20:34:06.428Z,33.33
2023-05-10T20:39:09.745Z,33.62
2023-05-10T20:44:12.466Z,33.85
2023-05-10T20:49:15.185Z,33.90
2023-05-10T20:54:17.850Z,34.01
2023-05-10T20:59:21.840Z,34.32
2023-05-10T21:04:25.927Z,34.53
2023-05-10T21:09:28.661Z,34.85
2023-05-10T21:14:31.267Z,35.00
2023-05-10T21:19:34.026Z,35.31
2023-05-10T21:24:36.676Z,35.42
2023-05-10T21:29:39.290Z,35.54
2023-05-10T21:34:42.003Z,36.13
2023-05-10T21:39:44.729Z,36.29
2023-05-10T21:44:47.936Z,36.69
2023-05-10T21:49:50.588Z,36.98
2023-05-10T21:54:53.139Z,37.26
2023-05-10T21:59:55.885Z,37.33
2023-05-10T22:04:58.544Z,37.41
2023-05-10T22:10:01.340Z,37.38
2023-05-10T22:20:11.080Z,37.75
2023-05-10T22:25:13.771Z,38.01
2023-05-10T22:30:17.133Z,38.35
2023-05-10T22:35:20.283Z,38.29
2023-05-10T22:40:22.901Z,38.59
2023-05-10T22:45:25.772Z,38.70
2023-05-10T22:50:30.784Z,38.90
2023-05-10T22:55:33.599Z,39.13
2023-05-10T23:00:36.357Z,39.41
2023-05-10T23:05:38.961Z,39.47
2023-05-10T23:10:41.651Z,39.63
2023-05-10T23:15:44.217Z,39.81
2023-05-10T23:20:46.920Z,40.00
2023-05-10T23:25:49.536Z,40.21
2023-05-10T23:30:56.784Z,40.59
2023-05-10T23:35:59.441Z,40.56
2023-05-10T23:41:02.060Z,40.74
2023-05-10T23:46:06.491Z,40.92
2023-05-10T23:51:09.159Z,41.01
2023-05-10T23:56:11.871Z,41.19
